Ypenburg, Netherlands
Current Conditions -  °F | °C
As of 6:55 PM on Monday 24 Nov 2014 (Local Time) from EHRD Reporting Station
Clear Clear  
Wind Chill: 39°   Ceiling: Unl
Heat Index: 39°   Visibility: 6mi
Dew Point: 39°   Wind: 2mph
Humidity: 100%   Direction: 200°SSW
Pressure: 30.33"   Gusts: NA
Location:  52.04°N, 4.37°E
Report Text: EHRD 241755Z AUTO 20002KT 9999 NSC 04/04 Q1027 NOSIG
Loading
Personal Weather Stations






























Interactive Weather Map New forecast layout! Learn more

10-Day Weather Forecast

Advertisements
Track Severe Weather on mobile